Hartford, Connecticut
Traffic Map
Current Weather Conditions
Hartford, Connecticut
Clear
Clear
77°
Feels Like: 78°
Wind Chill: 77° Ceiling: Unl
Heat Index: 78° Visibility: 10mi
Dew Point: 46° Wind: 7mph
Humidity: 33% Direction: 260° (W)
Pressure: 30in Gusts: 0mph
Raw Report DataKHFD 302253Z 26006KT 10SM CLR 25/08 A3000 RMK AO2 SLP158 T02500078
Traffic Incident Summary
Active as of:
Severity:
Category:
InformationThere was an issue retrieving the traffic information for this location. Please try a different location or try again shortly.
Advertisements
Track Severe Weather on mobile